Time;durP1;ratioP1;P1;durP2;ratioP2;P2;SDS_P1;SDS_P2;PMS_P1;PMS_P2;Temp;Humidity;BMP_temperature;BMP_pressure;BME280_temperature;BME280_humidity;BME280_pressure;Samples;Min_cycle;Max_cycle;Signal;HPM_P1;HPM_P2
2022/04/07 00:00:19;;;;;;;11.23;10.13;;;9.40;99.90;;;;;;5008580;28;20496;-48
2022/04/07 00:02:46;;;;;;;11.20;9.93;;;9.50;99.90;;;;;;5000815;28;20188;-52
2022/04/07 00:05:11;;;;;;;10.80;9.50;;;9.40;99.90;;;;;;5005625;28;20426;-49
2022/04/07 00:07:37;;;;;;;10.90;9.10;;;9.50;99.90;;;;;;5010670;28;20446;-47
2022/04/07 00:10:04;;;;;;;9.80;8.77;;;9.50;99.90;;;;;;5004686;28;20199;-47
2022/04/07 00:12:32;;;;;;;10.53;9.23;;;9.50;99.90;;;;;;5013036;28;20565;-47
2022/04/07 00:14:59;;;;;;;10.10;9.10;;;9.50;99.90;;;;;;5010535;28;20430;-48
2022/04/07 00:17:25;;;;;;;10.90;9.43;;;9.50;99.90;;;;;;5010725;28;20435;-48
2022/04/07 00:19:51;;;;;;;9.23;8.33;;;9.50;99.90;;;;;;5010234;28;20972;-47
2022/04/07 00:22:17;;;;;;;11.33;9.20;;;9.60;99.90;;;;;;5010604;28;20410;-47
2022/04/07 00:24:43;;;;;;;10.53;9.10;;;9.60;99.90;;;;;;5010650;28;20199;-48
2022/04/07 00:27:09;;;;;;;10.00;8.80;;;9.60;99.90;;;;;;4992515;28;20839;-48
2022/04/07 00:29:34;;;;;;;9.00;8.10;;;9.60;99.90;;;;;;5010232;28;20200;-48
2022/04/07 00:32:03;;;;;;;9.13;8.23;;;9.70;99.90;;;;;;5010693;28;20567;-48
2022/04/07 00:34:29;;;;;;;9.60;8.63;;;9.70;99.90;;;;;;5010176;28;20528;-48
2022/04/07 00:36:55;;;;;;;9.60;8.53;;;9.70;99.90;;;;;;4992886;28;20438;-48
2022/04/07 00:39:21;;;;;;;14.23;8.47;;;9.70;99.90;;;;;;5010023;28;20188;-48
2022/04/07 00:41:47;;;;;;;10.60;9.50;;;9.70;99.90;;;;;;5010725;28;20180;-48
2022/04/07 00:44:13;;;;;;;11.60;8.60;;;9.70;99.90;;;;;;5010502;28;20427;-48
2022/04/07 00:46:39;;;;;;;10.20;8.47;;;9.70;99.90;;;;;;5010133;28;20442;-48
2022/04/07 00:49:06;;;;;;;12.73;8.30;;;9.70;99.90;;;;;;4997790;28;20647;-48
2022/04/07 00:51:33;;;;;;;10.10;8.43;;;9.70;99.90;;;;;;5009135;28;20450;-48
2022/04/07 00:53:59;;;;;;;11.93;8.17;;;9.70;99.90;;;;;;5008667;28;20458;-49
2022/04/07 00:56:26;;;;;;;10.30;7.97;;;9.70;99.90;;;;;;5009921;28;20441;-48
2022/04/07 00:58:53;;;;;;;9.20;7.53;;;9.70;99.90;;;;;;5010127;28;20442;-48
2022/04/07 01:01:23;;;;;;;8.43;7.53;;;9.60;99.90;;;;;;4994451;28;20824;-48
2022/04/07 01:03:49;;;;;;;12.90;8.37;;;9.60;99.90;;;;;;5009546;28;20442;-48
2022/04/07 01:06:15;;;;;;;9.80;7.90;;;9.60;99.90;;;;;;5003655;28;20450;-47
2022/04/07 01:08:41;;;;;;;11.70;9.00;;;9.60;99.90;;;;;;5010080;28;20437;-48
2022/04/07 01:11:08;;;;;;;15.53;8.70;;;9.50;99.90;;;;;;5010011;28;20191;-49
2022/04/07 01:13:50;;;;;;;11.17;9.20;;;9.50;99.90;;;;;;5010262;28;20459;-50
2022/04/07 01:16:19;;;;;;;12.93;9.90;;;9.50;99.90;;;;;;4980304;28;20446;-48
2022/04/07 01:18:46;;;;;;;10.73;9.60;;;9.50;99.90;;;;;;5010317;28;20438;-49
2022/04/07 01:21:14;;;;;;;15.07;9.90;;;9.50;99.90;;;;;;5010031;28;20438;-52
2022/04/07 01:23:42;;;;;;;10.70;9.60;;;9.50;99.90;;;;;;5009469;28;20422;-48
2022/04/07 01:26:09;;;;;;;14.90;11.97;;;9.50;99.90;;;;;;4992330;28;20438;-50
2022/04/07 01:28:36;;;;;;;13.07;10.67;;;9.50;99.90;;;;;;5009815;28;20430;-48
2022/04/07 01:31:01;;;;;;;16.20;10.93;;;9.50;99.90;;;;;;5010566;28;20762;-48
2022/04/07 01:33:28;;;;;;;12.63;9.80;;;9.40;99.90;;;;;;4999055;28;20469;-47
2022/04/07 01:35:54;;;;;;;12.27;10.47;;;9.40;99.90;;;;;;5011392;28;20528;-47
2022/04/07 01:38:20;;;;;;;12.27;10.47;;;9.40;99.90;;;;;;5014240;28;20435;-47
2022/04/07 01:40:47;;;;;;;11.97;10.67;;;9.40;99.90;;;;;;5013479;28;20199;-48
2022/04/07 01:43:15;;;;;;;14.40;10.50;;;9.40;99.90;;;;;;5013367;28;20179;-47
2022/04/07 01:45:41;;;;;;;17.10;10.67;;;9.40;99.90;;;;;;5013439;28;20438;-48
2022/04/07 01:48:08;;;;;;;12.97;10.43;;;9.50;99.90;;;;;;5013171;28;20434;-48
2022/04/07 01:50:36;;;;;;;12.93;10.03;;;9.50;99.90;;;;;;5008647;28;20430;-48
2022/04/07 01:53:03;;;;;;;12.53;9.60;;;9.50;99.90;;;;;;5013197;28;20466;-47
2022/04/07 01:55:30;;;;;;;12.50;9.77;;;9.50;99.90;;;;;;5013424;28;20425;-47
2022/04/07 01:57:56;;;;;;;16.67;9.47;;;9.50;99.90;;;;;;5013429;28;21000;-47
2022/04/07 02:00:22;;;;;;;12.43;9.60;;;9.50;99.90;;;;;;5012848;28;20556;-47
2022/04/07 02:02:49;;;;;;;12.97;9.40;;;9.50;99.90;;;;;;5013221;28;20482;-57
2022/04/07 02:05:15;;;;;;;15.23;9.87;;;9.50;99.90;;;;;;5013125;28;20305;-47
2022/04/07 02:07:43;;;;;;;12.80;9.80;;;9.50;99.90;;;;;;5013190;28;20435;-47
2022/04/07 02:10:10;;;;;;;13.57;9.37;;;9.50;99.90;;;;;;5013320;28;20920;-48
2022/04/07 02:12:37;;;;;;;12.60;9.70;;;9.60;99.90;;;;;;5013120;28;20457;-48
2022/04/07 02:15:07;;;;;;;9.60;8.53;;;9.60;99.90;;;;;;5013075;28;20936;-53
2022/04/07 02:17:33;;;;;;;14.47;9.17;;;9.60;99.90;;;;;;5012376;28;20524;-47
2022/04/07 02:20:00;;;;;;;9.10;8.13;;;9.60;99.90;;;;;;5013019;28;20669;-47
2022/04/07 02:22:28;;;;;;;13.37;8.63;;;9.60;99.90;;;;;;5012881;28;20517;-47
2022/04/07 02:24:58;;;;;;;14.80;9.13;;;9.60;99.90;;;;;;5012780;28;20450;-47
2022/04/07 02:27:24;;;;;;;8.33;7.40;;;9.60;99.90;;;;;;5012474;28;20802;-48
2022/04/07 02:29:52;;;;;;;15.47;9.17;;;9.60;99.90;;;;;;5012797;28;20429;-47
2022/04/07 02:32:18;;;;;;;10.90;7.90;;;9.60;99.90;;;;;;5012287;28;20567;-51
2022/04/07 02:34:43;;;;;;;15.43;9.20;;;9.60;99.90;;;;;;5012640;28;20442;-47
2022/04/07 02:37:09;;;;;;;12.53;8.77;;;9.60;99.90;;;;;;5011964;28;20449;-47
2022/04/07 02:39:35;;;;;;;9.70;8.70;;;9.70;99.90;;;;;;5012439;28;20183;-47
2022/04/07 02:42:01;;;;;;;10.17;9.07;;;9.70;99.90;;;;;;5012271;28;20192;-47
2022/04/07 02:44:26;;;;;;;14.43;8.70;;;9.70;99.90;;;;;;5012279;28;20231;-47
2022/04/07 02:46:52;;;;;;;13.70;9.00;;;9.70;99.90;;;;;;5011134;28;20199;-47
2022/04/07 02:49:17;;;;;;;10.47;8.47;;;9.70;99.90;;;;;;5011967;28;20239;-48
2022/04/07 02:51:44;;;;;;;12.53;8.53;;;9.70;99.90;;;;;;5012297;28;20254;-49
2022/04/07 02:54:09;;;;;;;12.63;9.20;;;9.70;99.90;;;;;;5004017;28;20203;-48
2022/04/07 02:56:35;;;;;;;12.70;9.47;;;9.70;99.90;;;;;;5012146;28;20963;-49
2022/04/07 02:59:01;;;;;;;13.83;9.90;;;9.60;99.90;;;;;;5012101;28;20191;-48
2022/04/07 03:01:26;;;;;;;11.00;9.17;;;9.50;99.90;;;;;;5011902;28;20747;-49
2022/04/07 03:03:55;;;;;;;12.87;10.30;;;9.40;99.90;;;;;;5011921;28;20192;-48
2022/04/07 03:06:24;;;;;;;13.37;10.27;;;9.30;99.90;;;;;;5011423;28;20172;-48
2022/04/07 03:08:50;;;;;;;13.10;10.00;;;9.30;99.90;;;;;;5011478;28;20453;-48
2022/04/07 03:11:16;;;;;;;14.83;11.40;;;9.30;99.90;;;;;;5011469;28;20437;-48
2022/04/07 03:13:41;;;;;;;16.03;12.87;;;9.20;99.90;;;;;;5011568;28;20553;-48
2022/04/07 03:16:07;;;;;;;14.73;11.40;;;9.20;99.90;;;;;;5005270;28;20207;-49
2022/04/07 03:18:34;;;;;;;16.57;12.00;;;9.20;99.90;;;;;;4996285;28;20271;-48
2022/04/07 03:20:59;;;;;;;15.23;12.40;;;9.20;99.90;;;;;;4994882;28;20470;-48
2022/04/07 03:23:25;;;;;;;16.50;13.00;;;9.30;99.90;;;;;;5011715;28;20435;-48
2022/04/07 03:25:51;;;;;;;15.57;12.20;;;9.30;99.90;;;;;;5012009;28;20191;-48
2022/04/07 03:28:17;;;;;;;18.70;12.57;;;9.30;99.90;;;;;;5011522;28;20214;-48
2022/04/07 03:30:42;;;;;;;16.33;12.70;;;9.40;99.90;;;;;;5011283;28;20187;-48
2022/04/07 03:33:08;;;;;;;14.17;12.30;;;9.40;99.90;;;;;;5011087;28;20258;-47
2022/04/07 03:35:34;;;;;;;16.60;12.57;;;9.50;99.90;;;;;;5005240;28;20187;-47
2022/04/07 03:38:00;;;;;;;16.97;11.33;;;9.50;99.90;;;;;;5011527;28;20188;-48
2022/04/07 03:40:26;;;;;;;16.67;12.10;;;9.60;99.90;;;;;;5011423;28;20473;-47
2022/04/07 03:42:52;;;;;;;14.57;11.37;;;9.60;99.90;;;;;;5011508;28;20191;-48
2022/04/07 03:45:18;;;;;;;14.87;11.70;;;9.60;99.90;;;;;;5011040;28;20445;-48
2022/04/07 03:47:43;;;;;;;14.63;11.60;;;9.60;99.90;;;;;;5010426;28;20866;-47
2022/04/07 03:50:10;;;;;;;12.80;11.40;;;9.60;99.90;;;;;;5011152;28;20465;-48
2022/04/07 03:52:36;;;;;;;16.03;11.80;;;9.60;99.90;;;;;;4993344;28;20227;-47
2022/04/07 03:55:03;;;;;;;14.00;11.10;;;9.60;99.90;;;;;;5011515;28;20445;-48
2022/04/07 03:57:28;;;;;;;14.37;10.03;;;9.60;99.90;;;;;;5010680;28;20454;-47
2022/04/07 03:59:54;;;;;;;11.43;9.77;;;9.60;99.90;;;;;;5010715;28;20889;-48
2022/04/07 04:02:19;;;;;;;11.77;10.37;;;9.70;99.90;;;;;;5010572;28;20271;-47
2022/04/07 04:04:45;;;;;;;10.40;9.40;;;9.70;99.90;;;;;;5010649;28;20688;-47
2022/04/07 04:07:10;;;;;;;12.70;9.07;;;9.70;99.90;;;;;;5012416;28;20195;-52
2022/04/07 04:09:36;;;;;;;9.77;8.77;;;9.70;99.90;;;;;;4993637;28;20199;-48
2022/04/07 04:12:03;;;;;;;10.77;8.73;;;9.70;99.90;;;;;;5011555;28;20203;-48
2022/04/07 04:14:32;;;;;;;9.93;8.17;;;9.60;99.90;;;;;;5012023;28;20710;-57
2022/04/07 04:16:58;;;;;;;12.13;7.80;;;9.60;99.90;;;;;;4996860;28;20441;-47
2022/04/07 04:19:24;;;;;;;10.00;8.40;;;9.60;99.90;;;;;;5011897;28;20801;-47
2022/04/07 04:21:50;;;;;;;9.60;7.80;;;9.70;99.90;;;;;;5010249;28;20233;-47
2022/04/07 04:24:15;;;;;;;10.00;8.73;;;9.70;99.90;;;;;;5010924;28;20187;-47
2022/04/07 04:26:41;;;;;;;9.47;7.67;;;9.70;99.90;;;;;;4992933;28;20481;-47
2022/04/07 04:29:07;;;;;;;10.33;8.50;;;9.70;99.90;;;;;;5010607;28;20249;-48
2022/04/07 04:31:32;;;;;;;9.77;7.67;;;9.70;99.90;;;;;;5010919;28;20707;-48
2022/04/07 04:33:59;;;;;;;9.10;8.20;;;9.70;99.90;;;;;;5010735;28;21040;-47
2022/04/07 04:36:25;;;;;;;7.60;6.77;;;9.70;99.90;;;;;;5010894;28;20195;-46
2022/04/07 04:38:50;;;;;;;9.10;7.87;;;9.70;99.90;;;;;;5010925;28;20427;-47
2022/04/07 04:41:16;;;;;;;8.53;7.63;;;9.70;99.90;;;;;;5010678;28;20183;-47
2022/04/07 04:43:41;;;;;;;8.90;7.60;;;9.70;99.90;;;;;;5010406;28;20660;-47
2022/04/07 04:46:07;;;;;;;13.07;7.87;;;9.60;99.90;;;;;;5006806;28;20195;-47
2022/04/07 04:48:33;;;;;;;9.03;8.13;;;9.60;99.90;;;;;;5010030;28;20180;-48
2022/04/07 04:50:59;;;;;;;9.20;7.40;;;9.60;99.90;;;;;;5010050;28;20211;-47
2022/04/07 04:53:25;;;;;;;15.17;8.07;;;9.60;99.90;;;;;;5012682;28;20501;-48
2022/04/07 04:55:50;;;;;;;14.83;9.07;;;9.50;99.90;;;;;;4993568;28;20191;-47
2022/04/07 04:58:16;;;;;;;10.43;8.67;;;9.50;99.90;;;;;;5010027;28;20219;-53
2022/04/07 05:00:43;;;;;;;12.90;9.13;;;9.50;99.90;;;;;;5010316;28;20941;-47
2022/04/07 05:03:09;;;;;;;10.43;9.00;;;9.50;99.90;;;;;;5009939;28;20534;-48
2022/04/07 05:05:34;;;;;;;13.17;9.50;;;9.40;99.90;;;;;;4992579;28;20492;-54
2022/04/07 05:08:00;;;;;;;11.67;9.43;;;9.40;99.90;;;;;;5010200;28;20187;-47
2022/04/07 05:10:25;;;;;;;10.30;9.17;;;9.50;99.90;;;;;;5011328;28;20274;-47
2022/04/07 05:12:52;;;;;;;14.80;9.40;;;9.40;99.90;;;;;;5014273;28;20558;-47
2022/04/07 05:15:17;;;;;;;11.70;8.47;;;9.40;99.90;;;;;;5014409;28;20278;-47
2022/04/07 05:17:53;;;;;;;13.00;8.87;;;9.40;99.90;;;;;;4996316;28;20561;-48
2022/04/07 05:20:19;;;;;;;9.23;8.23;;;9.40;99.90;;;;;;4996458;28;20201;-47
2022/04/07 05:22:45;;;;;;;12.17;8.47;;;9.50;99.90;;;;;;5014327;28;20438;-47
2022/04/07 05:25:11;;;;;;;10.03;7.30;;;9.50;99.90;;;;;;5013936;28;21045;-47
2022/04/07 05:27:37;;;;;;;9.67;8.07;;;9.50;99.90;;;;;;5013455;28;20191;-47
2022/04/07 05:30:08;;;;;;;7.00;6.23;;;9.50;99.90;;;;;;5014181;28;20675;-47
2022/04/07 05:32:34;;;;;;;12.53;7.53;;;9.50;99.90;;;;;;5013845;28;20501;-47
2022/04/07 05:35:00;;;;;;;7.23;6.33;;;9.60;99.90;;;;;;5013116;28;21345;-47
2022/04/07 05:37:26;;;;;;;11.10;6.97;;;9.60;99.90;;;;;;5013390;28;20433;-47
2022/04/07 05:39:53;;;;;;;7.13;5.60;;;9.60;99.90;;;;;;5014050;28;20431;-47
2022/04/07 05:42:19;;;;;;;9.20;6.00;;;9.60;99.90;;;;;;5013961;28;20223;-47
2022/04/07 05:44:44;;;;;;;8.13;6.30;;;9.60;99.90;;;;;;5013864;28;20469;-47
2022/04/07 05:47:10;;;;;;;6.97;6.20;;;9.60;99.90;;;;;;5013583;28;20176;-48
2022/04/07 05:49:36;;;;;;;6.67;5.27;;;9.60;99.90;;;;;;5013184;28;20187;-48
2022/04/07 05:52:04;;;;;;;8.90;5.33;;;9.50;99.90;;;;;;5013824;28;21002;-47
2022/04/07 05:54:33;;;;;;;8.10;5.00;;;9.50;99.90;;;;;;5013835;28;20430;-47
2022/04/07 05:56:59;;;;;;;7.60;5.63;;;9.40;99.90;;;;;;5013770;28;20804;-47
2022/04/07 05:59:24;;;;;;;8.20;5.30;;;9.40;99.90;;;;;;5015028;28;20446;-47
2022/04/07 06:01:50;;;;;;;6.40;5.03;;;9.40;99.90;;;;;;5013447;28;20195;-47
2022/04/07 06:04:16;;;;;;;10.13;5.27;;;9.30;99.90;;;;;;5013556;28;20298;-48
2022/04/07 06:06:42;;;;;;;6.97;5.17;;;9.30;99.90;;;;;;5013314;28;20195;-48
2022/04/07 06:09:07;;;;;;;7.50;5.13;;;9.30;99.90;;;;;;4995350;28;20207;-48
2022/04/07 06:11:33;;;;;;;6.30;5.70;;;9.30;99.90;;;;;;5003559;28;20289;-48
2022/04/07 06:13:59;;;;;;;9.00;5.40;;;9.40;99.90;;;;;;5013216;28;20599;-48
2022/04/07 06:16:24;;;;;;;8.17;5.37;;;9.40;99.90;;;;;;5007761;28;20204;-48
2022/04/07 06:18:54;;;;;;;6.53;5.27;;;9.40;99.90;;;;;;5012705;28;20438;-47
2022/04/07 06:21:20;;;;;;;7.40;5.60;;;9.40;99.90;;;;;;5012770;28;20208;-48
2022/04/07 06:23:46;;;;;;;10.93;6.33;;;9.50;99.90;;;;;;5008810;28;21202;-47
2022/04/07 06:26:12;;;;;;;6.50;5.80;;;9.50;99.90;;;;;;5015473;28;20446;-47
2022/04/07 06:28:40;;;;;;;10.20;6.80;;;9.50;99.90;;;;;;5019299;28;20441;-47
2022/04/07 06:31:05;;;;;;;7.53;6.50;;;9.60;99.90;;;;;;5014918;28;20473;-48
2022/04/07 06:33:31;;;;;;;8.87;7.70;;;9.60;99.90;;;;;;5006251;28;20484;-48
2022/04/07 06:35:57;;;;;;;10.97;7.73;;;9.60;99.90;;;;;;5023248;28;20179;-48
2022/04/07 06:38:23;;;;;;;12.30;7.23;;;9.60;99.90;;;;;;5011140;28;20453;-48
2022/04/07 06:40:48;;;;;;;8.97;7.97;;;9.70;99.90;;;;;;5013402;28;20180;-47
2022/04/07 06:43:14;;;;;;;11.20;7.93;;;9.70;99.90;;;;;;5012504;28;20552;-47
2022/04/07 06:45:40;;;;;;;10.10;7.43;;;9.80;99.90;;;;;;5001093;28;20258;-48
2022/04/07 06:48:06;;;;;;;8.77;7.73;;;10.00;99.90;;;;;;4983703;28;20222;-48
2022/04/07 06:50:32;;;;;;;9.53;8.03;;;10.10;99.90;;;;;;5002431;28;20557;-48
2022/04/07 06:52:58;;;;;;;14.70;8.10;;;10.10;99.90;;;;;;5012539;28;20691;-47
2022/04/07 06:55:24;;;;;;;11.10;7.00;;;10.10;94.10;;;;;;5007144;28;20533;-47
2022/04/07 06:57:57;;;;;;;11.30;7.67;;;10.00;99.90;;;;;;5013168;28;20464;-47
2022/04/07 07:00:25;;;;;;;12.73;7.67;;;10.00;99.90;;;;;;5008053;28;20953;-47
2022/04/07 07:02:54;;;;;;;12.77;7.50;;;10.00;99.90;;;;;;4993403;28;20450;-48
2022/04/07 07:05:21;;;;;;;10.67;7.40;;;10.00;99.90;;;;;;5002092;28;20941;-48
2022/04/07 07:07:47;;;;;;;14.73;7.43;;;10.10;99.90;;;;;;5007214;28;20442;-47
2022/04/07 07:10:18;;;;;;;9.03;6.37;;;10.30;99.90;;;;;;5004407;28;20786;-47
2022/04/07 07:12:43;;;;;;;40.33;17.70;;;10.40;98.60;;;;;;5011607;28;20653;-47
2022/04/07 07:15:09;;;;;;;10.90;6.57;;;10.40;99.90;;;;;;5012195;28;20422;-47
2022/04/07 07:17:38;;;;;;;8.43;5.30;;;10.40;54.70;;;;;;5011429;28;20180;-48
2022/04/07 07:20:07;;;;;;;8.70;5.70;;;10.40;1.00;;;;;;5011483;28;20179;-47
2022/04/07 07:22:33;;;;;;;9.70;5.97;;;10.40;99.90;;;;;;5007402;28;21177;-48
2022/04/07 07:25:00;;;;;;;13.20;5.97;;;10.40;1.00;;;;;;5010712;28;20458;-48
2022/04/07 07:27:26;;;;;;;9.60;5.27;;;10.40;1.00;;;;;;5011123;28;20521;-49
2022/04/07 07:29:51;;;;;;;7.33;5.17;;;10.50;1.00;;;;;;5010511;28;20510;-48
2022/04/07 07:32:17;;;;;;;10.03;5.60;;;10.40;1.00;;;;;;5010856;28;20200;-48
